sensor_id;sensor_type;location;lat;lon;timestamp;pressure;altitude;pressure_sealevel;temperature;humidity
5574;BME280;2563;52.242;7.956;2023-01-26T00:00:25;98720.03;;;-2.15;100.00
5574;BME280;2563;52.242;7.956;2023-01-26T00:02:50;98720.84;;;-2.15;100.00
5574;BME280;2563;52.242;7.956;2023-01-26T00:05:15;98707.41;;;-2.14;100.00
5574;BME280;2563;52.242;7.956;2023-01-26T00:07:41;98706.56;;;-2.14;100.00
5574;BME280;2563;52.242;7.956;2023-01-26T00:10:10;98697.28;;;-2.04;100.00
5574;BME280;2563;52.242;7.956;2023-01-26T00:12:36;98690.56;;;-2.02;100.00
5574;BME280;2563;52.242;7.956;2023-01-26T00:15:01;98686.38;;;-2.05;100.00
5574;BME280;2563;52.242;7.956;2023-01-26T00:17:27;98680.50;;;-2.02;100.00
5574;BME280;2563;52.242;7.956;2023-01-26T00:19:53;98678.81;;;-2.02;100.00
5574;BME280;2563;52.242;7.956;2023-01-26T00:22:20;98672.09;;;-2.04;100.00
5574;BME280;2563;52.242;7.956;2023-01-26T00:24:46;98667.06;;;-2.06;100.00
5574;BME280;2563;52.242;7.956;2023-01-26T00:27:11;98657.84;;;-2.10;100.00
5574;BME280;2563;52.242;7.956;2023-01-26T00:29:36;98667.09;;;-2.12;100.00
5574;BME280;2563;52.242;7.956;2023-01-26T00:32:02;98665.38;;;-2.05;100.00
5574;BME280;2563;52.242;7.956;2023-01-26T00:34:27;98657.00;;;-2.07;100.00
5574;BME280;2563;52.242;7.956;2023-01-26T00:36:53;98648.59;;;-2.11;100.00
5574;BME280;2563;52.242;7.956;2023-01-26T00:39:18;98637.66;;;-2.07;100.00
5574;BME280;2563;52.242;7.956;2023-01-26T00:41:43;98622.53;;;-2.05;100.00
5574;BME280;2563;52.242;7.956;2023-01-26T00:44:27;98620.84;;;-2.05;100.00
5574;BME280;2563;52.242;7.956;2023-01-26T00:46:53;98615.84;;;-2.08;100.00
5574;BME280;2563;52.242;7.956;2023-01-26T00:49:18;98620.00;;;-2.02;100.00
5574;BME280;2563;52.242;7.956;2023-01-26T00:51:43;98611.59;;;-2.03;100.00
5574;BME280;2563;52.242;7.956;2023-01-26T00:54:09;98604.03;;;-2.03;100.00
5574;BME280;2563;52.242;7.956;2023-01-26T00:56:34;98609.09;;;-2.06;100.00
5574;BME280;2563;52.242;7.956;2023-01-26T00:59:00;98595.66;;;-2.03;100.00
5574;BME280;2563;52.242;7.956;2023-01-26T01:01:25;98593.13;;;-2.06;100.00
5574;BME280;2563;52.242;7.956;2023-01-26T01:03:50;98587.22;;;-2.04;100.00
5574;BME280;2563;52.242;7.956;2023-01-26T01:06:16;98587.22;;;-2.04;100.00
5574;BME280;2563;52.242;7.956;2023-01-26T01:08:42;98580.50;;;-2.02;100.00
5574;BME280;2563;52.242;7.956;2023-01-26T01:11:09;98575.50;;;-2.03;100.00
5574;BME280;2563;52.242;7.956;2023-01-26T01:13:36;98571.25;;;-2.00;100.00
5574;BME280;2563;52.242;7.956;2023-01-26T01:16:06;98558.63;;;-1.97;100.00
5574;BME280;2563;52.242;7.956;2023-01-26T01:18:32;98545.22;;;-1.99;100.00
5574;BME280;2563;52.242;7.956;2023-01-26T01:20:57;98532.66;;;-2.03;100.00
5574;BME280;2563;52.242;7.956;2023-01-26T01:23:23;98525.13;;;-2.08;100.00
5574;BME280;2563;52.242;7.956;2023-01-26T01:25:56;98522.56;;;-2.06;100.00
5574;BME280;2563;52.242;7.956;2023-01-26T01:28:21;98513.34;;;-2.06;100.00
5574;BME280;2563;52.242;7.956;2023-01-26T01:30:47;98509.13;;;-2.07;100.00
5574;BME280;2563;52.242;7.956;2023-01-26T01:33:12;98501.56;;;-2.07;100.00
5574;BME280;2563;52.242;7.956;2023-01-26T01:35:37;98498.22;;;-2.09;100.00
5574;BME280;2563;52.242;7.956;2023-01-26T01:38:03;98488.13;;;-2.06;100.00
5574;BME280;2563;52.242;7.956;2023-01-26T01:40:28;98488.97;;;-2.07;100.00
5574;BME280;2563;52.242;7.956;2023-01-26T01:42:53;98477.19;;;-2.03;100.00
5574;BME280;2563;52.242;7.956;2023-01-26T01:47:53;98466.25;;;-2.01;100.00
5574;BME280;2563;52.242;7.956;2023-01-26T01:50:20;98459.53;;;-2.02;100.00
5574;BME280;2563;52.242;7.956;2023-01-26T01:52:46;98446.09;;;-2.01;100.00
5574;BME280;2563;52.242;7.956;2023-01-26T01:55:13;98441.06;;;-2.01;100.00
5574;BME280;2563;52.242;7.956;2023-01-26T01:57:43;98430.97;;;-2.01;100.00
5574;BME280;2563;52.242;7.956;2023-01-26T02:00:15;98429.28;;;-1.99;100.00
5574;BME280;2563;52.242;7.956;2023-01-26T02:02:44;98422.56;;;-2.00;100.00
5574;BME280;2563;52.242;7.956;2023-01-26T02:05:32;98409.09;;;-1.96;100.00
5574;BME280;2563;52.242;7.956;2023-01-26T02:08:01;98402.34;;;-1.94;100.00
5574;BME280;2563;52.242;7.956;2023-01-26T02:10:27;98395.63;;;-1.91;100.00
5574;BME280;2563;52.242;7.956;2023-01-26T02:12:55;98388.88;;;-1.93;100.00
5574;BME280;2563;52.242;7.956;2023-01-26T02:15:21;98382.16;;;-1.90;100.00
5574;BME280;2563;52.242;7.956;2023-01-26T02:17:49;98372.06;;;-1.89;100.00
5574;BME280;2563;52.242;7.956;2023-01-26T02:28:15;98346.06;;;-1.96;100.00
5574;BME280;2563;52.242;7.956;2023-01-26T02:30:40;98345.22;;;-1.95;100.00
5574;BME280;2563;52.242;7.956;2023-01-26T02:33:06;98336.00;;;-1.96;100.00
5574;BME280;2563;52.242;7.956;2023-01-26T02:35:33;98330.16;;;-2.01;100.00
5574;BME280;2563;52.242;7.956;2023-01-26T02:37:58;98326.75;;;-1.97;100.00
5574;BME280;2563;52.242;7.956;2023-01-26T02:40:43;98311.59;;;-1.94;100.00
5574;BME280;2563;52.242;7.956;2023-01-26T02:43:11;98312.47;;;-1.96;100.00
5574;BME280;2563;52.242;7.956;2023-01-26T02:45:39;98309.13;;;-1.98;100.00
5574;BME280;2563;52.242;7.956;2023-01-26T02:48:05;98307.44;;;-1.96;100.00
5574;BME280;2563;52.242;7.956;2023-01-26T02:50:32;98296.47;;;-1.94;100.00
5574;BME280;2563;52.242;7.956;2023-01-26T02:52:58;98292.28;;;-1.91;100.00
5574;BME280;2563;52.242;7.956;2023-01-26T02:55:24;98292.31;;;-1.96;100.00
5574;BME280;2563;52.242;7.956;2023-01-26T02:58:01;98288.09;;;-1.96;100.00
5574;BME280;2563;52.242;7.956;2023-01-26T03:00:29;98280.50;;;-1.93;100.00
5574;BME280;2563;52.242;7.956;2023-01-26T03:02:58;98276.22;;;-1.87;100.00
5574;BME280;2563;52.242;7.956;2023-01-26T03:05:24;98269.53;;;-1.88;100.00
5574;BME280;2563;52.242;7.956;2023-01-26T03:07:50;98256.94;;;-1.90;100.00
5574;BME280;2563;52.242;7.956;2023-01-26T03:10:15;98251.94;;;-1.91;100.00
5574;BME280;2563;52.242;7.956;2023-01-26T03:12:42;98244.38;;;-1.91;100.00
5574;BME280;2563;52.242;7.956;2023-01-26T03:15:08;98241.00;;;-1.90;100.00
5574;BME280;2563;52.242;7.956;2023-01-26T03:18:03;98230.84;;;-1.86;100.00
5574;BME280;2563;52.242;7.956;2023-01-26T03:20:47;98211.50;;;-1.84;100.00
5574;BME280;2563;52.242;7.956;2023-01-26T03:23:31;98198.91;;;-1.85;100.00
5574;BME280;2563;52.242;7.956;2023-01-26T03:26:15;98196.38;;;-1.84;100.00
5574;BME280;2563;52.242;7.956;2023-01-26T03:28:59;98187.97;;;-1.83;100.00
5574;BME280;2563;52.242;7.956;2023-01-26T03:31:25;98193.03;;;-1.84;100.00
5574;BME280;2563;52.242;7.956;2023-01-26T03:33:50;98182.06;;;-1.82;100.00
5574;BME280;2563;52.242;7.956;2023-01-26T03:36:15;98177.03;;;-1.83;100.00
5574;BME280;2563;52.242;7.956;2023-01-26T03:38:41;98172.84;;;-1.83;100.00
5574;BME280;2563;52.242;7.956;2023-01-26T03:41:06;98167.78;;;-1.83;100.00
5574;BME280;2563;52.242;7.956;2023-01-26T03:43:50;98161.09;;;-1.85;100.00
5574;BME280;2563;52.242;7.956;2023-01-26T03:46:34;98151.00;;;-1.85;100.00
5574;BME280;2563;52.242;7.956;2023-01-26T03:49:18;98135.00;;;-1.81;100.00
5574;BME280;2563;52.242;7.956;2023-01-26T03:52:02;98119.84;;;-1.78;100.00
5574;BME280;2563;52.242;7.956;2023-01-26T03:54:46;98112.31;;;-1.81;100.00
5574;BME280;2563;52.242;7.956;2023-01-26T03:57:30;98113.16;;;-1.82;100.00
5574;BME280;2563;52.242;7.956;2023-01-26T03:59:55;98103.13;;;-1.85;100.00
5574;BME280;2563;52.242;7.956;2023-01-26T04:02:20;98107.28;;;-1.83;100.00
5574;BME280;2563;52.242;7.956;2023-01-26T04:05:05;98094.72;;;-1.84;100.00
5574;BME280;2563;52.242;7.956;2023-01-26T04:07:48;98085.41;;;-1.81;100.00
5574;BME280;2563;52.242;7.956;2023-01-26T04:10:32;98066.84;;;-1.75;100.00
5574;BME280;2563;52.242;7.956;2023-01-26T04:12:58;98071.00;;;-1.71;100.00
5574;BME280;2563;52.242;7.956;2023-01-26T04:15:42;98066.00;;;-1.74;100.00
5574;BME280;2563;52.242;7.956;2023-01-26T04:18:25;98067.66;;;-1.73;100.00
5574;BME280;2563;52.242;7.956;2023-01-26T04:21:10;98056.75;;;-1.75;100.00
5574;BME280;2563;52.242;7.956;2023-01-26T04:23:54;98049.16;;;-1.72;100.00
5574;BME280;2563;52.242;7.956;2023-01-26T04:26:26;98034.03;;;-1.72;100.00
5574;BME280;2563;52.242;7.956;2023-01-26T04:28:51;98029.81;;;-1.72;100.00
5574;BME280;2563;52.242;7.956;2023-01-26T04:31:17;98018.84;;;-1.69;100.00
5574;BME280;2563;52.242;7.956;2023-01-26T04:33:42;98012.09;;;-1.67;100.00
5574;BME280;2563;52.242;7.956;2023-01-26T04:36:08;98004.53;;;-1.67;100.00
5574;BME280;2563;52.242;7.956;2023-01-26T04:38:34;97991.81;;;-1.61;100.00
5574;BME280;2563;52.242;7.956;2023-01-26T04:41:00;97976.59;;;-1.55;100.00
5574;BME280;2563;52.242;7.956;2023-01-26T04:43:26;97970.72;;;-1.55;100.00
5574;BME280;2563;52.242;7.956;2023-01-26T04:45:58;97957.19;;;-1.51;100.00
5574;BME280;2563;52.242;7.956;2023-01-26T04:48:24;97947.94;;;-1.51;100.00
5574;BME280;2563;52.242;7.956;2023-01-26T04:50:57;97940.47;;;-1.55;100.00
5574;BME280;2563;52.242;7.956;2023-01-26T04:53:23;97933.72;;;-1.55;100.00
5574;BME280;2563;52.242;7.956;2023-01-26T04:55:49;97937.94;;;-1.57;100.00
5574;BME280;2563;52.242;7.956;2023-01-26T04:58:14;97917.75;;;-1.55;100.00
5574;BME280;2563;52.242;7.956;2023-01-26T05:00:39;97905.03;;;-1.49;100.00
5574;BME280;2563;52.242;7.956;2023-01-26T05:03:05;97896.63;;;-1.50;100.00
5574;BME280;2563;52.242;7.956;2023-01-26T05:05:34;97895.75;;;-1.48;100.00
5574;BME280;2563;52.242;7.956;2023-01-26T05:08:01;97885.72;;;-1.52;100.00
5574;BME280;2563;52.242;7.956;2023-01-26T05:10:26;97879.81;;;-1.49;100.00
5574;BME280;2563;52.242;7.956;2023-01-26T05:12:52;97874.75;;;-1.47;100.00
5574;BME280;2563;52.242;7.956;2023-01-26T05:15:17;97858.72;;;-1.46;100.00
5574;BME280;2563;52.242;7.956;2023-01-26T05:17:43;97851.97;;;-1.44;100.00
5574;BME280;2563;52.242;7.956;2023-01-26T05:20:10;97855.28;;;-1.42;100.00
5574;BME280;2563;52.242;7.956;2023-01-26T05:22:35;97850.31;;;-1.45;100.00
5574;BME280;2563;52.242;7.956;2023-01-26T05:25:01;97846.09;;;-1.45;100.00
5574;BME280;2563;52.242;7.956;2023-01-26T05:27:26;97843.59;;;-1.46;100.00
5574;BME280;2563;52.242;7.956;2023-01-26T05:29:51;97834.31;;;-1.44;100.00
5574;BME280;2563;52.242;7.956;2023-01-26T05:32:18;97835.13;;;-1.42;100.00
5574;BME280;2563;52.242;7.956;2023-01-26T05:34:43;97833.47;;;-1.43;100.00
5574;BME280;2563;52.242;7.956;2023-01-26T05:37:09;97823.38;;;-1.43;100.00
5574;BME280;2563;52.242;7.956;2023-01-26T05:39:34;97821.63;;;-1.41;100.00
5574;BME280;2563;52.242;7.956;2023-01-26T05:41:59;97815.75;;;-1.42;100.00
5574;BME280;2563;52.242;7.956;2023-01-26T05:44:25;97812.41;;;-1.42;100.00
5574;BME280;2563;52.242;7.956;2023-01-26T05:46:51;97809.91;;;-1.44;100.00
5574;BME280;2563;52.242;7.956;2023-01-26T05:49:16;97797.25;;;-1.41;100.00
5574;BME280;2563;52.242;7.956;2023-01-26T05:51:42;97784.69;;;-1.44;100.00
5574;BME280;2563;52.242;7.956;2023-01-26T05:54:08;97793.06;;;-1.42;100.00
5574;BME280;2563;52.242;7.956;2023-01-26T05:56:33;97782.94;;;-1.39;100.00
5574;BME280;2563;52.242;7.956;2023-01-26T05:58:59;97779.63;;;-1.42;100.00
5574;BME280;2563;52.242;7.956;2023-01-26T06:01:24;97777.91;;;-1.40;100.00
5574;BME280;2563;52.242;7.956;2023-01-26T06:03:49;97773.63;;;-1.37;100.00
5574;BME280;2563;52.242;7.956;2023-01-26T06:06:15;97771.06;;;-1.35;100.00
5574;BME280;2563;52.242;7.956;2023-01-26T06:08:40;97769.53;;;-1.42;100.00
5574;BME280;2563;52.242;7.956;2023-01-26T06:11:05;97754.28;;;-1.36;100.00
5574;BME280;2563;52.242;7.956;2023-01-26T06:13:31;97755.97;;;-1.37;100.00
5574;BME280;2563;52.242;7.956;2023-01-26T06:15:59;97755.88;;;-1.32;100.00
5574;BME280;2563;52.242;7.956;2023-01-26T06:18:24;97738.16;;;-1.29;100.00
5574;BME280;2563;52.242;7.956;2023-01-26T06:20:50;97735.63;;;-1.29;100.00
5574;BME280;2563;52.242;7.956;2023-01-26T06:23:15;97724.75;;;-1.31;100.00
5574;BME280;2563;52.242;7.956;2023-01-26T06:25:40;97722.94;;;-1.26;100.00
5574;BME280;2563;52.242;7.956;2023-01-26T06:28:06;97709.44;;;-1.23;100.00
5574;BME280;2563;52.242;7.956;2023-01-26T06:30:31;97706.88;;;-1.22;100.00
5574;BME280;2563;52.242;7.956;2023-01-26T06:32:58;97693.41;;;-1.22;100.00
5574;BME280;2563;52.242;7.956;2023-01-26T06:35:23;97697.50;;;-1.17;100.00
5574;BME280;2563;52.242;7.956;2023-01-26T06:37:50;97685.69;;;-1.15;100.00
5574;BME280;2563;52.242;7.956;2023-01-26T06:40:16;97683.09;;;-1.13;100.00
5574;BME280;2563;52.242;7.956;2023-01-26T06:42:47;97686.47;;;-1.13;100.00
5574;BME280;2563;52.242;7.956;2023-01-26T06:45:13;97681.41;;;-1.13;100.00
5574;BME280;2563;52.242;7.956;2023-01-26T06:47:46;97673.00;;;-1.12;100.00
5574;BME280;2563;52.242;7.956;2023-01-26T06:50:14;97672.16;;;-1.12;100.00
5574;BME280;2563;52.242;7.956;2023-01-26T06:52:41;97676.34;;;-1.13;100.00
5574;BME280;2563;52.242;7.956;2023-01-26T06:55:15;97670.56;;;-1.15;100.00
5574;BME280;2563;52.242;7.956;2023-01-26T06:57:42;97669.66;;;-1.14;100.00
5574;BME280;2563;52.242;7.956;2023-01-26T07:00:10;97659.56;;;-1.14;100.00
5574;BME280;2563;52.242;7.956;2023-01-26T07:02:36;97662.06;;;-1.12;100.00
5574;BME280;2563;52.242;7.956;2023-01-26T07:05:02;97657.84;;;-1.12;100.00
5574;BME280;2563;52.242;7.956;2023-01-26T07:07:27;97649.41;;;-1.11;100.00
5574;BME280;2563;52.242;7.956;2023-01-26T07:09:53;97650.25;;;-1.10;100.00
5574;BME280;2563;52.242;7.956;2023-01-26T07:12:18;97646.88;;;-1.11;100.00
5574;BME280;2563;52.242;7.956;2023-01-26T07:14:44;97633.44;;;-1.11;100.00
5574;BME280;2563;52.242;7.956;2023-01-26T07:17:09;97625.84;;;-1.10;100.00
5574;BME280;2563;52.242;7.956;2023-01-26T07:19:34;97623.25;;;-1.08;100.00
5574;BME280;2563;52.242;7.956;2023-01-26T07:22:01;97621.53;;;-1.06;100.00
5574;BME280;2563;52.242;7.956;2023-01-26T07:24:27;97630.91;;;-1.11;100.00
5574;BME280;2563;52.242;7.956;2023-01-26T07:26:53;97619.06;;;-1.08;100.00
5574;BME280;2563;52.242;7.956;2023-01-26T07:29:18;97609.72;;;-1.05;100.00
5574;BME280;2563;52.242;7.956;2023-01-26T07:31:43;97603.84;;;-1.04;100.00
5574;BME280;2563;52.242;7.956;2023-01-26T07:34:09;97612.19;;;-1.02;100.00
5574;BME280;2563;52.242;7.956;2023-01-26T07:36:35;97603.72;;;-1.00;100.00
5574;BME280;2563;52.242;7.956;2023-01-26T07:39:00;97602.03;;;-0.99;100.00
5574;BME280;2563;52.242;7.956;2023-01-26T07:41:25;97597.78;;;-0.97;100.00
5574;BME280;2563;52.242;7.956;2023-01-26T07:43:51;97598.59;;;-0.97;100.00
5574;BME280;2563;52.242;7.956;2023-01-26T07:46:16;97590.91;;;-0.92;100.00
5574;BME280;2563;52.242;7.956;2023-01-26T07:48:41;97594.25;;;-0.92;100.00
5574;BME280;2563;52.242;7.956;2023-01-26T07:51:07;97586.56;;;-0.87;100.00
5574;BME280;2563;52.242;7.956;2023-01-26T07:53:36;97580.59;;;-0.84;100.00
5574;BME280;2563;52.242;7.956;2023-01-26T07:56:06;97577.16;;;-0.82;100.00
5574;BME280;2563;52.242;7.956;2023-01-26T07:58:32;97572.16;;;-0.83;100.00
5574;BME280;2563;52.242;7.956;2023-01-26T08:01:12;97560.19;;;-0.77;100.00
5574;BME280;2563;52.242;7.956;2023-01-26T08:03:39;97559.34;;;-0.76;100.00
5574;BME280;2563;52.242;7.956;2023-01-26T08:06:05;97553.41;;;-0.75;100.00
5574;BME280;2563;52.242;7.956;2023-01-26T08:08:31;97559.34;;;-0.76;100.00
5574;BME280;2563;52.242;7.956;2023-01-26T08:10:57;97550.81;;;-0.72;100.00
5574;BME280;2563;52.242;7.956;2023-01-26T08:13:25;97548.22;;;-0.70;100.00
5574;BME280;2563;52.242;7.956;2023-01-26T08:15:50;97543.16;;;-0.69;100.00
5574;BME280;2563;52.242;7.956;2023-01-26T08:18:16;97539.75;;;-0.68;100.00
5574;BME280;2563;52.242;7.956;2023-01-26T08:20:56;97532.03;;;-0.63;100.00
5574;BME280;2563;52.242;7.956;2023-01-26T08:23:22;97533.78;;;-0.65;100.00
5574;BME280;2563;52.242;7.956;2023-01-26T08:25:48;97536.31;;;-0.65;100.00
5574;BME280;2563;52.242;7.956;2023-01-26T08:28:13;97533.75;;;-0.63;100.00
5574;BME280;2563;52.242;7.956;2023-01-26T08:30:39;97523.50;;;-0.59;100.00
5574;BME280;2563;52.242;7.956;2023-01-26T08:33:04;97526.97;;;-0.61;100.00
5574;BME280;2563;52.242;7.956;2023-01-26T08:35:30;97510.88;;;-0.59;100.00
5574;BME280;2563;52.242;7.956;2023-01-26T08:37:56;97506.56;;;-0.55;100.00
5574;BME280;2563;52.242;7.956;2023-01-26T08:40:22;97505.81;;;-0.57;100.00
5574;BME280;2563;52.242;7.956;2023-01-26T08:42:49;97502.28;;;-0.53;100.00
5574;BME280;2563;52.242;7.956;2023-01-26T08:45:14;97504.75;;;-0.50;100.00
5574;BME280;2563;52.242;7.956;2023-01-26T08:47:40;97493.78;;;-0.49;100.00
5574;BME280;2563;52.242;7.956;2023-01-26T08:50:06;97486.09;;;-0.46;100.00
5574;BME280;2563;52.242;7.956;2023-01-26T08:52:31;97482.72;;;-0.45;100.00
5574;BME280;2563;52.242;7.956;2023-01-26T08:54:56;97479.19;;;-0.41;100.00
5574;BME280;2563;52.242;7.956;2023-01-26T08:57:22;97473.28;;;-0.40;100.00
5574;BME280;2563;52.242;7.956;2023-01-26T08:59:47;97470.63;;;-0.35;100.00
5574;BME280;2563;52.242;7.956;2023-01-26T09:02:12;97479.16;;;-0.39;100.00
5574;BME280;2563;52.242;7.956;2023-01-26T09:04:38;97480.66;;;-0.34;100.00
5574;BME280;2563;52.242;7.956;2023-01-26T09:07:03;97471.34;;;-0.32;100.00
5574;BME280;2563;52.242;7.956;2023-01-26T09:09:30;97461.84;;;-0.24;100.00
5574;BME280;2563;52.242;7.956;2023-01-26T09:11:55;97453.38;;;-0.23;100.00
5574;BME280;2563;52.242;7.956;2023-01-26T09:14:21;97447.50;;;-0.23;100.00
5574;BME280;2563;52.242;7.956;2023-01-26T09:16:46;97444.16;;;-0.24;100.00
5574;BME280;2563;52.242;7.956;2023-01-26T09:19:12;97436.47;;;-0.20;100.00
5574;BME280;2563;52.242;7.956;2023-01-26T09:21:37;97439.69;;;-0.15;100.00
5574;BME280;2563;52.242;7.956;2023-01-26T09:24:03;97437.19;;;-0.17;100.00
5574;BME280;2563;52.242;7.956;2023-01-26T09:26:29;97434.59;;;-0.14;100.00
5574;BME280;2563;52.242;7.956;2023-01-26T09:28:54;97434.66;;;-0.17;100.00
5574;BME280;2563;52.242;7.956;2023-01-26T09:31:20;97439.00;;;-0.20;100.00
5574;BME280;2563;52.242;7.956;2023-01-26T09:33:47;97443.09;;;-0.16;100.00
5574;BME280;2563;52.242;7.956;2023-01-26T09:36:13;97437.16;;;-0.15;100.00
5574;BME280;2563;52.242;7.956;2023-01-26T09:38:39;97433.00;;;-0.16;100.00
5574;BME280;2563;52.242;7.956;2023-01-26T09:43:56;97431.25;;;-0.14;100.00
5574;BME280;2563;52.242;7.956;2023-01-26T09:46:28;97424.38;;;-0.11;100.00
5574;BME280;2563;52.242;7.956;2023-01-26T09:51:37;97415.72;;;-0.04;100.00
5574;BME280;2563;52.242;7.956;2023-01-26T09:56:54;97420.75;;;-0.02;100.00
5574;BME280;2563;52.242;7.956;2023-01-26T10:01:55;97418.16;;;-0.01;100.00
5574;BME280;2563;52.242;7.956;2023-01-26T10:04:36;97404.66;;;0.01;100.00
5574;BME280;2563;52.242;7.956;2023-01-26T10:07:04;97405.38;;;0.04;100.00
5574;BME280;2563;52.242;7.956;2023-01-26T10:09:36;97399.38;;;0.07;100.00
5574;BME280;2563;52.242;7.956;2023-01-26T10:12:24;97391.75;;;0.08;100.00
5574;BME280;2563;52.242;7.956;2023-01-26T10:15:24;97391.00;;;0.05;100.00
5574;BME280;2563;52.242;7.956;2023-01-26T10:17:53;97400.97;;;0.09;100.00
5574;BME280;2563;52.242;7.956;2023-01-26T10:23:27;97386.69;;;0.08;100.00
5574;BME280;2563;52.242;7.956;2023-01-26T10:25:57;97383.19;;;0.12;100.00
5574;BME280;2563;52.242;7.956;2023-01-26T10:28:31;97369.78;;;0.10;100.00
5574;BME280;2563;52.242;7.956;2023-01-26T10:31:01;97374.72;;;0.13;100.00
5574;BME280;2563;52.242;7.956;2023-01-26T10:33:32;97361.19;;;0.14;100.00
5574;BME280;2563;52.242;7.956;2023-01-26T10:35:59;97361.94;;;0.18;100.00
5574;BME280;2563;52.242;7.956;2023-01-26T10:41:20;97337.16;;;0.28;100.00
5574;BME280;2563;52.242;7.956;2023-01-26T10:43:53;97333.84;;;0.26;100.00
5574;BME280;2563;52.242;7.956;2023-01-26T10:48:54;97332.09;;;0.28;100.00
5574;BME280;2563;52.242;7.956;2023-01-26T10:51:31;97335.28;;;0.33;100.00
5574;BME280;2563;52.242;7.956;2023-01-26T10:54:14;97314.03;;;0.38;100.00
5574;BME280;2563;52.242;7.956;2023-01-26T10:57:12;97316.59;;;0.37;100.00
5574;BME280;2563;52.242;7.956;2023-01-26T11:00:02;97312.47;;;0.34;100.00
5574;BME280;2563;52.242;7.956;2023-01-26T11:02:34;97315.06;;;0.33;100.00
5574;BME280;2563;52.242;7.956;2023-01-26T11:07:43;97321.09;;;0.29;100.00
5574;BME280;2563;52.242;7.956;2023-01-26T11:12:50;97317.66;;;0.31;100.00
5574;BME280;2563;52.242;7.956;2023-01-26T11:15:19;97315.94;;;0.32;100.00
5574;BME280;2563;52.242;7.956;2023-01-26T11:20:27;97304.59;;;0.42;100.00
5574;BME280;2563;52.242;7.956;2023-01-26T11:26:31;97299.53;;;0.42;100.00
5574;BME280;2563;52.242;7.956;2023-01-26T11:31:56;97302.03;;;0.44;100.00
5574;BME280;2563;52.242;7.956;2023-01-26T11:34:47;97302.72;;;0.47;100.00
5574;BME280;2563;52.242;7.956;2023-01-26T11:39:59;97290.53;;;0.58;100.00
5574;BME280;2563;52.242;7.956;2023-01-26T11:42:35;97283.91;;;0.54;100.00
5574;BME280;2563;52.242;7.956;2023-01-26T11:50:40;97251.50;;;0.64;100.00
5574;BME280;2563;52.242;7.956;2023-01-26T11:53:51;97246.44;;;0.64;100.00
5574;BME280;2563;52.242;7.956;2023-01-26T11:59:02;97228.44;;;0.72;100.00
5574;BME280;2563;52.242;7.956;2023-01-26T12:01:34;97219.81;;;0.77;100.00
5574;BME280;2563;52.242;7.956;2023-01-26T12:04:01;97208.47;;;0.86;100.00
5574;BME280;2563;52.242;7.956;2023-01-26T12:06:36;97206.63;;;0.91;100.00
5574;BME280;2563;52.242;7.956;2023-01-26T12:09:20;97188.69;;;0.96;100.00
5574;BME280;2563;52.242;7.956;2023-01-26T12:16:53;97182.72;;;0.98;100.00
5574;BME280;2563;52.242;7.956;2023-01-26T12:19:50;97169.16;;;0.99;100.00
5574;BME280;2563;52.242;7.956;2023-01-26T12:22:28;97169.28;;;0.96;100.00
5574;BME280;2563;52.242;7.956;2023-01-26T12:25:01;97161.59;;;0.98;100.00
5574;BME280;2563;52.242;7.956;2023-01-26T12:27:34;97151.19;;;1.05;100.00
5574;BME280;2563;52.242;7.956;2023-01-26T12:30:29;97147.81;;;1.05;100.00
5574;BME280;2563;52.242;7.956;2023-01-26T12:32:51;97136.63;;;1.11;100.00
5574;BME280;2563;52.242;7.956;2023-01-26T12:44:20;97125.75;;;1.09;100.00
5574;BME280;2563;52.242;7.956;2023-01-26T12:46:53;97117.00;;;1.16;100.00
5574;BME280;2563;52.242;7.956;2023-01-26T12:49:34;97126.00;;;1.23;100.00
5574;BME280;2563;52.242;7.956;2023-01-26T12:52:10;97118.44;;;1.21;100.00
5574;BME280;2563;52.242;7.956;2023-01-26T12:54:42;97117.75;;;1.18;100.00
5574;BME280;2563;52.242;7.956;2023-01-26T12:57:21;97106.59;;;1.22;100.00
5574;BME280;2563;52.242;7.956;2023-01-26T12:59:49;97102.28;;;1.24;100.00
5574;BME280;2563;52.242;7.956;2023-01-26T13:04:42;97107.50;;;1.21;100.00
5574;BME280;2563;52.242;7.956;2023-01-26T13:07:46;97097.22;;;1.24;100.00
5574;BME280;2563;52.242;7.956;2023-01-26T13:15:21;97089.25;;;1.33;100.00
5574;BME280;2563;52.242;7.956;2023-01-26T13:18:01;97094.25;;;1.35;100.00
5574;BME280;2563;52.242;7.956;2023-01-26T13:26:24;97082.88;;;1.43;100.00
5574;BME280;2563;52.242;7.956;2023-01-26T13:31:49;97062.31;;;1.51;100.00
5574;BME280;2563;52.242;7.956;2023-01-26T13:34:18;97053.66;;;1.55;100.00
5574;BME280;2563;52.242;7.956;2023-01-26T13:36:46;97055.97;;;1.60;100.00
5574;BME280;2563;52.242;7.956;2023-01-26T13:39:21;97061.81;;;1.62;100.00
5574;BME280;2563;52.242;7.956;2023-01-26T13:41:49;97061.81;;;1.62;100.00
5574;BME280;2563;52.242;7.956;2023-01-26T13:44:32;97045.22;;;1.74;100.00
5574;BME280;2563;52.242;7.956;2023-01-26T13:47:14;97025.63;;;1.77;100.00
5574;BME280;2563;52.242;7.956;2023-01-26T13:49:42;97024.59;;;1.81;100.00
5574;BME280;2563;52.242;7.956;2023-01-26T13:52:17;97036.59;;;1.78;100.00
5574;BME280;2563;52.242;7.956;2023-01-26T13:54:44;97033.09;;;1.80;100.00
5574;BME280;2563;52.242;7.956;2023-01-26T13:57:11;97032.69;;;1.89;100.00
5574;BME280;2563;52.242;7.956;2023-01-26T13:59:55;97021.66;;;1.90;100.00
5574;BME280;2563;52.242;7.956;2023-01-26T14:04:53;97005.09;;;2.01;100.00
5574;BME280;2563;52.242;7.956;2023-01-26T14:07:23;97009.22;;;2.03;100.00
5574;BME280;2563;52.242;7.956;2023-01-26T14:09:54;97009.16;;;2.05;100.00
5574;BME280;2563;52.242;7.956;2023-01-26T14:12:22;97002.94;;;2.10;100.00
5574;BME280;2563;52.242;7.956;2023-01-26T14:14:53;96996.78;;;2.16;100.00
5574;BME280;2563;52.242;7.956;2023-01-26T14:19:52;96992.09;;;2.26;100.00
5574;BME280;2563;52.242;7.956;2023-01-26T14:22:18;96993.44;;;2.33;100.00
5574;BME280;2563;52.242;7.956;2023-01-26T14:24:47;96974.78;;;2.34;100.00
5574;BME280;2563;52.242;7.956;2023-01-26T14:27:30;96977.69;;;2.26;100.00
5574;BME280;2563;52.242;7.956;2023-01-26T14:29:58;96973.97;;;2.33;100.00
5574;BME280;2563;52.242;7.956;2023-01-26T14:32:23;96962.53;;;2.42;100.00
5574;BME280;2563;52.242;7.956;2023-01-26T14:34:56;96952.88;;;2.49;100.00
5574;BME280;2563;52.242;7.956;2023-01-26T14:37:22;96942.59;;;2.52;100.00
5574;BME280;2563;52.242;7.956;2023-01-26T14:39:48;96923.75;;;2.56;100.00
5574;BME280;2563;52.242;7.956;2023-01-26T14:42:16;96910.19;;;2.57;100.00
5574;BME280;2563;52.242;7.956;2023-01-26T14:44:42;96896.47;;;2.61;100.00
5574;BME280;2563;52.242;7.956;2023-01-26T14:47:21;96893.00;;;2.62;100.00
5574;BME280;2563;52.242;7.956;2023-01-26T14:49:55;96884.59;;;2.62;100.00
5574;BME280;2563;52.242;7.956;2023-01-26T14:54:51;96871.88;;;2.62;100.00
5574;BME280;2563;52.242;7.956;2023-01-26T14:57:21;96867.78;;;2.59;100.00
5574;BME280;2563;52.242;7.956;2023-01-26T14:59:49;96884.00;;;2.57;100.00